Latest Coastal Weather Observations for Truscott

IDD60701

Issued at 1:51 pm CST Tuesday 23 December 2014 (issued every 10 minutes, with the page automatically refreshed every 10 minutes)

About coastal observations | Map of coastal stations | Coastal observations for NT | Marine services | Other Formats
Station Details ID: 001020 Name: TRUSCOTT Lat: -14.09 Lon: 126.39 Height: 51.0 m
Data from the previous 72 hours. | See also: Recent months at Truscott
Date/Time
CST
Temp

°C
Wind Pressure Rain
since 9am
mm
Weather Cloud Vis
km
Sea
Height
m
Swell
Dir
 
Speed
knots
Gust
knots
hPa Trend Height
m
Period
s
Dir
23/01:30pm 33.5 NW 8 13 1006.8 - 0.0 - - 10 - - - -
23/01:00pm 33.8 NNW 8 13 1008.0 - 0.0 - - 10 - - - -
23/12:30pm 33.9 WNW 7 13 1008.4 - 0.0 - Partly cloudy 10 - - - -
23/12:00pm 33.7 NW 7 11 1008.6 - 0.0 - Partly cloudy 10 - - - -
23/11:30am 33.2 WNW 5 9 1009.1 - 0.0 - Partly cloudy 10 - - - -
23/11:00am 32.6 WNW 6 8 1009.4 - 0.0 - - 10 - - - -
23/10:30am 31.8 WNW 6 9 1008.9 - 0.6 - - 10 - - - -
23/10:00am 31.8 W 5 7 1009.5 - 0.6 - Partly cloudy 10 - - - -
23/09:30am 31.4 WNW 4 7 1009.6 - 0.6 - - 10 - - - -
23/09:00am 29.7 NNW 4 7 1009.3 - 0.6 - Partly cloudy 10 - - - -
23/08:30am 30.3 N 4 5 1009.1 - 0.6 - Partly cloudy 10 - - - -
23/08:00am 29.2 N 3 5 1008.9 - 0.6 - - 10 - - - -
23/07:30am 28.0 CALM 0 0 1008.0 - 0.6 - - 10 - - - -
23/07:00am 26.9 CALM 0 0 1008.2 - 0.6 - - 10 - - - -
23/06:30am 26.6 CALM 0 0 1008.0 - 0.6 - - 10 - - - -
23/06:00am 26.8 CALM 0 0 1007.7 - 0.6 - - 10 - - - -
23/05:30am 26.8 N 2 3 1007.6 - 0.6 - - 10 - - - -
23/05:00am 26.7 CALM 0 0 1007.3 - 0.6 - - 10 - - - -
23/04:30am 26.8 CALM 0 0 1006.5 - 0.6 - - 10 - - - -
23/04:00am 27.1 CALM 0 0 1007.1 - 0.6 - - 10 - - - -
23/03:30am 27.0 CALM 0 0 1007.2 - 0.6 - - 10 - - - -
23/03:00am 27.0 CALM 0 0 1007.3 - 0.6 - - 10 - - - -
23/02:30am 27.6 CALM 0 0 1007.4 - 0.6 - - 10 - - - -
23/02:00am 27.6 CALM 0 0 1007.5 - 0.6 - - 10 - - - -
23/01:30am 27.6 CALM 0 0 1007.1 - 0.6 - - 10 - - - -
23/01:00am 27.8 CALM 0 0 1007.8 - 0.6 - - 10 - - - -
23/12:30am 27.8 CALM 0 0 1008.0 - 0.6 - - 10 - - - -
23/12:00am 28.1 CALM 0 0 1008.1 - 0.6 - - 10 - - - -
 
Date/Time
CST
Temp

°C
Wind Pressure Rain
since 9am
mm
Weather Cloud Vis
km
Sea
Height
m
Swell
Dir
 
Speed
knots
Gust
knots
hPa Trend Height
m
Period
s
Dir
22/11:30pm 28.5 NW 3 4 1008.0 - 0.6 - - 10 - - - -
22/11:00pm 28.6 CALM 0 1 1008.0 - 0.6 - - 10 - - - -
22/10:30pm 29.0 NW 2 4 1007.4 - 0.6 - - 10 - - - -
22/10:00pm 29.2 NNW 3 4 1007.8 - 0.6 - - 10 - - - -
22/09:30pm 29.2 N 4 5 1007.4 - 0.6 - - 10 - - - -
22/09:00pm 29.6 N 3 5 1007.1 - 0.6 - - 10 - - - -
22/08:30pm 29.7 N 3 5 1006.9 - 0.6 - - 10 - - - -
22/08:00pm 29.9 NNW 3 4 1006.7 - 0.6 - - 10 - - - -
22/07:30pm 30.1 NW 6 8 1005.6 - 0.6 - - 10 - - - -
22/07:00pm 30.7 NW 5 8 1005.7 - 0.6 - - 10 - - - -
22/06:30pm 30.9 NNW 7 11 1005.2 - 0.6 - - 10 - - - -
22/06:00pm 31.4 NNW 9 13 1005.2 - 0.6 - - 10 - - - -
22/05:30pm 31.8 NNW 8 12 1005.5 - 0.6 - - 10 - - - -
22/05:00pm 32.6 NNW 9 14 1005.6 - 0.6 - - 10 - - - -
22/04:30pm 33.3 N 8 13 1005.5 - 0.6 - - 10 - - - -
22/04:00pm 33.3 NNW 8 14 1006.1 - 0.6 - - 10 - - - -
22/03:30pm 32.6 NNW 9 13 1006.3 - 0.6 - - 10 - - - -
22/03:00pm 33.8 NNW 9 14 1006.8 - 0.6 - - 10 - - - -
22/02:30pm 32.9 N 8 14 1006.8 - 0.6 - - 10 - - - -
22/02:00pm 33.3 NNW 8 13 1007.2 - 0.6 - - 10 - - - -
22/01:30pm 33.0 N 8 14 1007.0 - 0.6 - - 10 - - - -
22/01:00pm 32.9 NW 9 14 1008.1 - 0.6 - - 10 - - - -
22/12:30pm 32.4 NNW 9 12 1008.5 - 0.6 - Partly cloudy 10 - - - -
22/12:00pm 32.2 NNW 6 8 1008.7 - 0.4 - Partly cloudy 10 - - - -
22/11:30am 30.4 NNE 5 7 1008.9 - 0.4 - Partly cloudy 10 - - - -
22/11:00am 30.7 N 7 11 1009.0 - 0.0 - Partly cloudy 10 - - - -
22/10:30am 33.7 E 4 6 1008.3 - 0.0 - Cloudy 10 - - - -
22/10:00am 32.4 NE 4 7 1008.9 - 0.0 - - 10 - - - -
22/09:30am 31.7 ENE 4 6 1008.9 - 0.0 - Partly cloudy 10 - - - -
22/09:00am 31.0 ENE 4 7 1008.7 - 0.0 - - 10 - - - -
22/08:30am 29.8 E 5 7 1008.6 - 0.0 - - 10 - - - -
22/08:00am 28.8 ESE 4 5 1008.1 - 0.0 - - 10 - - - -
22/07:30am 27.8 ESE 4 5 1007.2 - 0.0 - - 10 - - - -
22/07:00am 26.9 ESE 3 4 1007.2 - 0.0 - - 10 - - - -
22/06:30am 26.6 CALM 0 0 1006.8 - 0.0 - - 10 - - - -
22/06:00am 26.7 CALM 0 0 1006.5 - 0.0 - - 10 - - - -
22/05:30am 27.3 SSE 2 4 1006.5 - 0.0 - - 10 - - - -
22/05:00am 27.2 ESE 2 3 1006.3 - 0.0 - - 10 - - - -
22/04:30am 27.4 ESE 4 6 1005.8 - 0.0 - Cloudy 10 - - - -
22/04:00am 27.3 ENE 1 4 1006.2 - 0.0 - - 10 - - - -
22/03:30am 27.5 CALM 0 1 1006.0 - 0.0 - - 10 - - - -
22/03:00am 27.4 CALM 0 0 1006.1 - 0.0 - - 10 - - - -
22/02:30am 27.7 CALM 0 0 1006.3 - 0.0 - - 10 - - - -
22/02:00am 27.5 SE 5 8 1006.7 - 0.0 - - 10 - - - -
22/01:30am 27.7 CALM 0 0 1006.2 - 0.0 - - 10 - - - -
22/01:00am 28.1 CALM 0 0 1007.1 - 0.0 - - 10 - - - -
22/12:30am 28.0 NNE 2 3 1007.4 - 0.0 - - 10 - - - -
22/12:00am 28.5 CALM 0 0 1007.6 - 0.0 - - 10 - - - -
 
Date/Time
CST
Temp

°C
Wind Pressure Rain
since 9am
mm
Weather Cloud Vis
km
Sea
Height
m
Swell
Dir
 
Speed
knots
Gust
knots
hPa Trend Height
m
Period
s
Dir
21/11:30pm 28.7 WNW 3 4 1007.5 - 0.0 - - 10 - - - -
21/11:00pm 29.4 W 4 5 1007.3 - 0.0 - - 10 - - - -
21/10:30pm 29.9 WSW 4 5 1006.8 - 0.0 - - 10 - - - -
21/10:00pm 30.0 WSW 4 6 1007.3 - 0.0 - - 10 - - - -
21/09:30pm 30.0 W 6 10 1007.2 - 0.0 - - 10 - - - -
21/09:00pm 30.3 W 7 9 1006.8 - 0.0 - - 10 - - - -
21/08:30pm 30.8 W 6 9 1006.3 - 0.0 - - 10 - - - -
21/08:00pm 31.1 WNW 7 9 1005.7 - 0.0 - - 10 - - - -
21/07:30pm 31.7 WNW 6 9 1004.8 - 0.0 - - 10 - - - -
21/07:00pm 32.5 WNW 7 9 1004.9 - 0.0 - - 10 - - - -
21/06:30pm 32.5 WNW 7 9 1004.5 - 0.0 - - 10 - - - -
21/06:00pm 32.8 NW 7 9 1004.5 - 0.0 - - 10 - - - -
21/05:30pm 34.1 WNW 7 10 1004.3 - 0.0 - - 10 - - - -
21/05:00pm 34.9 WNW 7 11 1004.3 - 0.0 - - 10 - - - -
21/04:30pm 34.4 NW 7 11 1004.2 - 0.0 - - 10 - - - -
21/04:00pm 34.9 W 9 12 1004.6 - 0.0 - - 10 - - - -
21/03:30pm 34.9 WNW 8 12 1005.2 - 0.0 - - 10 - - - -
21/03:00pm 34.7 W 9 13 1005.6 - 0.0 - - 10 - - - -
21/02:30pm 33.9 WNW 10 14 1005.9 - 0.0 - - 10 - - - -
21/02:00pm 34.1 WNW 9 14 1006.6 - 0.0 - - 10 - - - -
21/01:30pm 33.8 WNW 9 13 1006.6 - 0.0 - - 10 - - - -
21/01:00pm 33.9 W 9 12 1007.6 - 0.0 - - 10 - - - -
21/12:30pm 33.7 WNW 9 13 1008.0 - 0.0 - - 10 - - - -
21/12:00pm 33.6 WNW 8 11 1008.2 - 0.0 - Partly cloudy 10 - - - -
21/11:30am 33.0 WNW 7 11 1008.6 - 0.0 - - 10 - - - -
21/11:00am 32.6 W 6 11 1008.9 - 0.0 - Partly cloudy 10 - - - -
21/10:30am 31.5 W 6 9 1008.5 - 0.2 - Cloudy 10 - - - -
21/10:00am 31.1 WSW 4 7 1009.0 - 0.2 - - 10 - - - -
21/09:30am 30.7 WSW 6 9 1009.0 - 0.2 - Partly cloudy 10 - - - -
21/09:00am 30.3 SW 4 6 1008.9 - 0.2 - - 10 - - - -
21/08:30am 29.7 W 4 6 1008.9 - 0.2 - - 10 - - - -
21/08:00am 29.2 SW 1 4 1008.6 - 0.2 - - 10 - - - -
21/07:30am 27.9 CALM 0 0 1007.6 - 0.2 - - 10 - - - -
21/07:00am 25.8 CALM 0 0 1007.8 - 0.2 - - 10 - - - -
21/06:30am 25.4 CALM 0 0 1007.7 - 0.2 - - 10 - - - -
21/06:00am 25.1 CALM 0 4 1007.3 - 0.2 - - 10 - - - -
21/05:30am 26.0 SW 4 5 1007.0 - 0.2 - - 10 - - - -
21/05:00am 25.4 S 3 4 1006.8 - 0.2 - - 10 - - - -
21/04:30am 25.2 S 3 5 1006.1 - 0.2 - - 10 - - - -
21/04:00am 25.0 CALM 0 0 1006.6 - 0.2 - - 10 - - - -
21/03:30am 25.2 CALM 0 0 1006.5 - 0.2 - - 10 - - - -
21/03:00am 25.1 CALM 0 0 1006.8 - 0.2 - - 10 - - - -
21/02:30am 26.0 CALM 0 3 1006.8 - 0.2 - - 10 - - - -
21/02:00am 26.7 W 4 5 1006.9 - 0.2 - - 10 - - - -
21/01:30am 26.5 ESE 1 5 1006.9 - 0.2 - - 10 - - - -
21/01:00am 26.1 CALM 0 0 1007.9 - 0.2 - - 10 - - - -
21/12:30am 26.1 CALM 0 0 1008.5 - 0.2 - - 10 - - - -
21/12:00am 26.1 ESE 3 5 1008.7 - 0.2 - - 10 - - - -
 
Date/Time
CST
Temp

°C
Wind Pressure Rain
since 9am
mm
Weather Cloud Vis
km
Sea
Height
m
Swell
Dir
 
Speed
knots
Gust
knots
hPa Trend Height
m
Period
s
Dir
20/11:30pm 26.3 ESE 3 4 1008.8 - 0.2 - - 10 - - - -
20/11:00pm 26.4 SE 4 7 1008.9 - 0.2 - - 10 - - - -
20/10:30pm 26.8 S 6 8 1008.3 - 0.2 - - 10 - - - -
20/10:00pm 27.2 SSW 7 10 1008.5 - 0.2 - Partly cloudy 10 - - - -
20/09:30pm 27.1 SW 6 9 1008.3 - 0.2 - Partly cloudy 10 - - - -
20/09:00pm 26.7 WSW 5 8 1007.9 - 0.2 - - 10 - - - -
20/08:30pm 26.4 W 10 15 1007.9 - 0.2 - - 10 - - - -
20/08:00pm 26.7 WSW 10 15 1007.7 - 0.2 - - 10 - - - -
20/07:30pm 26.6 WSW 10 14 1006.8 - 0.2 - Cloudy 10 - - - -
20/07:00pm 25.0 WSW 5 7 1007.3 - 0.2 - Partly cloudy 10 - - - -
20/06:30pm 24.3 SSE 10 22 1007.2 - 0.0 - Partly cloudy 10 - - - -
20/06:27pm 25.2 S 15 25 1007.3 - 0.0 - Partly cloudy 10 - - - -
20/06:00pm 28.7 S 11 15 1007.1 - 0.0 - Partly cloudy 10 - - - -
20/05:30pm 30.5 N 6 9 1005.9 - 0.0 - Partly cloudy 10 - - - -
20/05:00pm 30.6 N 8 12 1005.9 - 0.0 - - 10 - - - -
20/04:30pm 30.8 N 9 14 1005.4 - 0.0 - - 10 - - - -
20/04:00pm 30.7 N 8 12 1006.3 - 0.0 - - 10 - - - -
20/03:30pm 31.3 N 9 15 1006.4 - 0.0 - Partly cloudy 10 - - - -

Other Formats:

Comma delimited format used in spreadsheet applications
http://www.bom.gov.au/fwo/IDD60701/IDD60701.95101.axf

JavaScript Object Notation format (JSON) in row-major order
http://www.bom.gov.au/fwo/IDD60701/IDD60701.95101.json